Pagrindinis puslapis
METAR-TAF:

METAR-TAF

Oro uostai :

Bania Luka, Bosnija ir Hercegovina

platuma: 44-47N, ilguma: 017-13E, Aukštis: 156 m

Dabartinis oras

Ataskaita buvo paskelbta 18 minutes, ne 21:00 UTC
Vėjas 3 kt iš Vakarų/Šiaurės Vakarų
Temperatūra 13°C
Drėgmė 88%
Slėgis 1012 hPa
Matomumas 10 km arba daugiau
nėra debesų žemiau 1500 m ir nėra kamuolinių lietaus debesų

METAR: LQBK 282100Z 29003KT CAVOK 13/11 Q1012 NOSIG

Laikas: 23:18 (21:18 UTC)

Prognozė

Ataskaita buvo paskelbta 4 valandos ir 18 minutes, ne 17:00 UTC
Prognozė galioja nuo 28 metu 18 UTC su 29 metu 18 UTC
Vėjas 5 kt iš Vakarų
Matomumas 10 km arba daugiau
Išsisklaidę debesys ne aukštis 4000 ft
Tikimybė 40% :
Laikinai
nuo 29 metu 03 UTC su 29 metu 12 UTC
Matomumas: 4000 m
Su prošvaistėmis ne aukštis 1200 ft
Apsiniaukę ne aukštis 3000 ft
lietus
Laikinai
nuo 29 metu 12 UTC su 29 metu 17 UTC
Vėjas 10 kt iš Šiaurės/Šiaurės Vakarų

TAF: LQBK 281700Z 2818/2918 27005KT 9999 SCT040 TX18/2913Z TN10/2904Z PROB40 TEMPO 2903/2912 4000 RA BKN012 OVC030 TEMPO 2912/2917 33010KT

Orai ataskaitas ir orų prognozės (METAR, TAF).

turimą stotys yra geltonos ir raudonos taškus žemėlapyje.

Perkelti pele per norėdami pamatyti stoties vardą.

Tada spustelėkite, norėdami matyti oro stebėjimo ir prognozės.

Norėdami pakeisti žemėlapį: spustelėkite ant žalios mygtukų su juodo kryžiaus žemyn,; žalią mygtuką su brūkšneliu, jei norite nutolinti; arba žalių rodyklių gretimoms žemėlapius.


METAR-TAF: